Time;durP1;ratioP1;P1;durP2;ratioP2;P2;SDS_P1;SDS_P2;PMS_P1;PMS_P2;Temp;Humidity;BMP_temperature;BMP_pressure;BME280_temperature;BME280_humidity;BME280_pressure;Samples;Min_cycle;Max_cycle;Signal;HPM_P1;HPM_P2
2021/04/26 00:01:01;;;;;;;2.47;1.60;;;12.80;46.60;;;;;;6186888;23;20005;-47
2021/04/26 00:03:27;;;;;;;4.30;1.70;;;12.80;46.60;;;;;;6186507;23;20075;-47
2021/04/26 00:05:52;;;;;;;4.45;2.17;;;12.80;46.60;;;;;;6187140;23;20005;-47
2021/04/26 00:08:18;;;;;;;6.82;1.83;;;12.80;46.70;;;;;;6186563;23;20068;-47
2021/04/26 00:10:43;;;;;;;4.53;1.75;;;12.80;46.70;;;;;;6186890;23;20021;-47
2021/04/26 00:13:09;;;;;;;3.67;1.88;;;12.70;46.60;;;;;;6186964;23;20412;-47
2021/04/26 00:15:35;;;;;;;8.63;1.63;;;12.70;46.70;;;;;;6187139;23;20033;-47
2021/04/26 00:18:00;;;;;;;6.00;2.33;;;12.70;46.70;;;;;;6186125;23;20001;-47
2021/04/26 00:20:30;;;;;;;8.98;2.55;;;12.70;46.60;;;;;;6186261;23;20013;-47
2021/04/26 00:22:57;;;;;;;5.53;2.13;;;12.70;46.70;;;;;;6186908;23;20012;-47
2021/04/26 00:25:23;;;;;;;6.65;2.63;;;12.70;46.70;;;;;;6186902;23;20029;-47
2021/04/26 00:27:49;;;;;;;7.10;2.53;;;12.70;46.70;;;;;;6186731;23;20305;-47
2021/04/26 00:30:17;;;;;;;3.92;2.40;;;12.70;46.60;;;;;;6186288;23;20017;-47
2021/04/26 00:32:44;;;;;;;5.60;2.10;;;12.70;46.70;;;;;;6187006;23;20009;-47
2021/04/26 00:35:11;;;;;;;10.00;2.67;;;12.70;46.70;;;;;;6186849;23;20119;-47
2021/04/26 00:37:37;;;;;;;3.70;2.33;;;12.70;46.70;;;;;;6184952;23;20412;-47
2021/04/26 00:40:07;;;;;;;8.20;3.05;;;12.70;46.70;;;;;;6186088;23;20008;-47
2021/04/26 00:42:34;;;;;;;5.53;3.08;;;12.70;46.70;;;;;;6186713;23;20001;-47
2021/04/26 00:45:00;;;;;;;7.70;2.22;;;12.70;46.60;;;;;;6186428;23;20088;-47
2021/04/26 00:47:25;;;;;;;4.32;2.30;;;12.60;46.70;;;;;;6186348;23;20316;-47
2021/04/26 00:49:51;;;;;;;6.55;2.55;;;12.60;46.70;;;;;;6186076;23;20104;-47
2021/04/26 00:52:17;;;;;;;3.83;2.38;;;12.60;46.80;;;;;;6186701;23;20051;-47
2021/04/26 00:54:44;;;;;;;5.90;2.50;;;12.60;46.90;;;;;;6186141;23;20089;-47
2021/04/26 00:57:09;;;;;;;3.92;2.38;;;12.60;46.80;;;;;;6186379;23;20445;-47
2021/04/26 00:59:35;;;;;;;6.78;2.38;;;12.60;46.90;;;;;;6185498;23;20033;-47
2021/04/26 01:02:02;;;;;;;9.73;2.70;;;12.60;46.90;;;;;;6186870;23;20052;-47
2021/04/26 01:04:32;;;;;;;6.45;2.80;;;12.60;46.90;;;;;;6186493;23;20005;-47
2021/04/26 01:06:57;;;;;;;6.38;2.40;;;12.60;46.90;;;;;;6186658;23;20084;-47
2021/04/26 01:09:23;;;;;;;4.60;2.30;;;12.60;47.00;;;;;;6185837;23;20039;-47
2021/04/26 01:12:15;;;;;;;8.05;2.65;;;12.60;47.00;;;;;;6186192;23;20004;-47
2021/04/26 01:15:16;;;;;;;21.80;2.58;;;12.60;47.00;;;;;;6186375;23;20302;-47
2021/04/26 01:17:52;;;;;;;6.30;3.08;;;12.50;47.00;;;;;;6186518;23;20013;-47
2021/04/26 01:20:39;;;;;;;4.22;2.05;;;12.50;47.00;;;;;;6185566;23;20017;-47
2021/04/26 01:23:35;;;;;;;4.07;2.03;;;12.60;47.10;;;;;;6186498;23;20005;-47
2021/04/26 01:26:02;;;;;;;5.80;2.97;;;12.50;47.20;;;;;;6186055;23;20373;-47
2021/04/26 01:29:15;;;;;;;5.97;2.67;;;12.50;47.20;;;;;;6209084;23;20290;-47
2021/04/26 01:32:33;;;;;;;5.50;2.38;;;12.50;47.20;;;;;;6186341;23;20036;-47
2021/04/26 01:34:59;;;;;;;8.95;2.92;;;12.50;47.10;;;;;;6123466;23;20005;-47
2021/04/26 01:37:27;;;;;;;6.65;3.10;;;12.50;47.20;;;;;;6123899;23;20345;-47
2021/04/26 01:39:54;;;;;;;6.28;2.55;;;12.50;47.20;;;;;;6123343;23;20009;-47
2021/04/26 01:42:21;;;;;;;6.93;2.22;;;12.50;47.20;;;;;;6123620;23;20010;-47
2021/04/26 01:44:47;;;;;;;6.10;2.47;;;12.50;47.30;;;;;;6123671;23;20409;-47
2021/04/26 01:47:13;;;;;;;5.68;2.45;;;12.50;47.40;;;;;;6123843;23;20002;-47
2021/04/26 01:49:39;;;;;;;3.22;2.30;;;12.50;47.40;;;;;;6122923;23;20132;-47
2021/04/26 01:52:09;;;;;;;6.32;2.47;;;12.50;47.40;;;;;;6123876;23;20002;-47
2021/04/26 01:54:36;;;;;;;7.07;2.60;;;12.50;47.50;;;;;;6123705;23;20014;-47
2021/04/26 01:57:03;;;;;;;7.15;2.80;;;12.50;47.50;;;;;;6123670;23;19998;-47
2021/04/26 01:59:29;;;;;;;5.40;2.58;;;12.50;47.50;;;;;;6123274;23;20013;-47
2021/04/26 02:01:56;;;;;;;4.07;2.70;;;12.50;47.50;;;;;;6123476;23;20002;-47
2021/04/26 02:04:25;;;;;;;6.50;2.78;;;12.50;47.60;;;;;;6123583;23;20010;-47
2021/04/26 02:06:52;;;;;;;4.47;2.75;;;12.50;47.60;;;;;;6123700;23;20006;-47
2021/04/26 02:09:18;;;;;;;8.90;2.97;;;12.50;47.60;;;;;;6130708;23;20009;-47
2021/04/26 02:11:45;;;;;;;5.93;2.72;;;12.50;47.70;;;;;;6186074;23;20464;-47
2021/04/26 02:14:12;;;;;;;5.65;2.65;;;12.40;47.60;;;;;;6185924;23;20005;-47
2021/04/26 02:16:39;;;;;;;4.22;2.08;;;12.40;47.60;;;;;;6185611;23;20001;-47
2021/04/26 02:19:05;;;;;;;5.22;2.75;;;12.40;47.70;;;;;;6185301;23;20096;-47
2021/04/26 02:21:31;;;;;;;6.47;2.78;;;12.40;47.80;;;;;;6186118;23;20416;-47
2021/04/26 02:23:56;;;;;;;7.57;2.45;;;12.40;47.80;;;;;;6185445;23;19997;-47
2021/04/26 02:26:22;;;;;;;4.95;2.85;;;12.40;47.80;;;;;;6185524;23;20012;-47
2021/04/26 02:28:47;;;;;;;4.20;2.30;;;12.40;47.80;;;;;;6185295;23;20001;-47
2021/04/26 02:31:20;;;;;;;6.45;2.67;;;12.40;47.80;;;;;;6185176;23;20013;-47
2021/04/26 02:33:53;;;;;;;7.47;2.83;;;12.40;47.90;;;;;;6186071;23;20009;-47
2021/04/26 02:36:28;;;;;;;6.75;2.78;;;12.40;47.90;;;;;;6181344;23;20172;-47
2021/04/26 02:38:57;;;;;;;7.47;2.55;;;12.40;47.90;;;;;;6185419;23;20005;-47
2021/04/26 02:41:28;;;;;;;4.05;2.28;;;12.40;48.00;;;;;;6185754;23;20044;-47
2021/04/26 02:43:59;;;;;;;10.57;2.90;;;12.40;48.00;;;;;;6185552;23;19997;-47
2021/04/26 02:46:26;;;;;;;10.27;2.92;;;12.40;48.00;;;;;;6185463;23;20012;-47
2021/04/26 02:48:53;;;;;;;10.63;3.40;;;12.40;48.10;;;;;;6208618;23;20419;-47
2021/04/26 02:51:21;;;;;;;10.40;3.15;;;12.30;48.10;;;;;;6185486;23;20020;-47
2021/04/26 02:53:49;;;;;;;8.57;2.83;;;12.40;48.10;;;;;;6185756;23;20004;-47
2021/04/26 02:56:16;;;;;;;5.70;2.67;;;12.40;48.20;;;;;;6185900;23;20013;-47
2021/04/26 02:58:46;;;;;;;4.07;2.35;;;12.40;48.20;;;;;;6185309;23;20529;-47
2021/04/26 03:01:13;;;;;;;9.00;2.93;;;12.40;48.20;;;;;;6185397;23;20408;-47
2021/04/26 03:03:41;;;;;;;10.02;3.17;;;12.40;48.20;;;;;;6185265;23;20224;-47
2021/04/26 03:06:07;;;;;;;7.22;2.50;;;12.40;48.20;;;;;;6185234;23;20005;-47
2021/04/26 03:08:34;;;;;;;8.52;3.10;;;12.30;48.20;;;;;;6185278;23;20063;-47
2021/04/26 03:11:05;;;;;;;12.20;2.83;;;12.30;48.20;;;;;;6185656;23;20035;-47
2021/04/26 03:13:31;;;;;;;5.65;2.58;;;12.30;48.20;;;;;;6186368;23;20064;-47
2021/04/26 03:15:57;;;;;;;6.63;2.88;;;12.30;48.20;;;;;;6187362;23;20028;-47
2021/04/26 03:18:23;;;;;;;11.68;2.75;;;12.30;48.30;;;;;;6187183;23;20004;-47
2021/04/26 03:20:50;;;;;;;8.80;3.08;;;12.30;48.30;;;;;;6187235;23;20019;-47
2021/04/26 03:23:20;;;;;;;6.28;2.67;;;12.30;48.30;;;;;;6186944;23;20436;-47
2021/04/26 03:25:45;;;;;;;9.57;3.10;;;12.30;48.30;;;;;;6182671;23;20765;-47
2021/04/26 03:28:12;;;;;;;10.30;3.30;;;12.30;48.40;;;;;;6186186;23;20005;-47
2021/04/26 03:30:39;;;;;;;5.78;3.05;;;12.30;48.30;;;;;;6187272;23;20293;-47
2021/04/26 03:33:05;;;;;;;5.72;2.38;;;12.30;48.30;;;;;;6187189;23;20001;-47
2021/04/26 03:35:31;;;;;;;6.68;2.97;;;12.30;48.30;;;;;;6187394;23;20009;-47
2021/04/26 03:37:57;;;;;;;6.18;2.67;;;12.20;48.30;;;;;;6187253;23;20055;-47
2021/04/26 03:40:25;;;;;;;5.45;2.72;;;12.30;48.30;;;;;;6187060;23;20008;-47
2021/04/26 03:42:55;;;;;;;5.22;3.30;;;12.30;48.40;;;;;;6187007;23;20009;-47
2021/04/26 03:45:22;;;;;;;5.03;2.47;;;12.20;48.40;;;;;;6186648;23;20005;-47
2021/04/26 03:47:48;;;;;;;4.22;2.17;;;12.20;48.40;;;;;;6186139;23;20088;-47
2021/04/26 03:50:15;;;;;;;6.32;2.53;;;12.20;48.40;;;;;;6186427;23;20013;-47
2021/04/26 03:52:42;;;;;;;6.13;2.38;;;12.20;48.40;;;;;;6186730;23;20456;-47
2021/04/26 03:55:10;;;;;;;7.43;2.63;;;12.20;48.40;;;;;;6187050;23;20012;-47
2021/04/26 03:57:36;;;;;;;6.03;2.90;;;12.20;48.40;;;;;;6187106;23;20017;-47
2021/04/26 04:00:04;;;;;;;8.20;2.60;;;12.20;48.50;;;;;;6186890;23;20368;-47
2021/04/26 04:02:29;;;;;;;4.03;2.65;;;12.20;48.50;;;;;;6186881;23;19997;-47
2021/04/26 04:04:55;;;;;;;4.38;2.70;;;12.20;48.50;;;;;;6187505;23;20015;-47
2021/04/26 04:07:21;;;;;;;9.65;3.20;;;12.20;48.40;;;;;;6186689;23;20025;-47
2021/04/26 04:09:47;;;;;;;6.85;2.33;;;12.20;48.50;;;;;;6186482;23;20016;-47
2021/04/26 04:12:13;;;;;;;12.18;2.88;;;12.20;48.50;;;;;;6186933;23;20305;-47
2021/04/26 04:14:38;;;;;;;8.85;2.35;;;12.20;48.50;;;;;;6186711;23;20005;-47
2021/04/26 04:17:04;;;;;;;9.85;3.65;;;12.20;48.50;;;;;;6186761;23;20074;-47
2021/04/26 04:19:30;;;;;;;14.55;2.70;;;12.20;48.50;;;;;;6185475;23;20016;-47
2021/04/26 04:21:55;;;;;;;7.15;3.00;;;12.20;48.50;;;;;;6186339;23;20005;-47
2021/04/26 04:24:21;;;;;;;3.95;2.55;;;12.20;48.50;;;;;;6186410;23;20051;-47
2021/04/26 04:26:46;;;;;;;5.20;2.40;;;12.20;48.50;;;;;;6186811;23;20080;-47
2021/04/26 04:29:12;;;;;;;6.40;3.00;;;12.10;48.40;;;;;;6186088;23;20444;-47
2021/04/26 04:31:38;;;;;;;9.07;2.90;;;12.20;48.50;;;;;;6186504;23;20406;-47
2021/04/26 04:34:04;;;;;;;3.78;2.42;;;12.20;48.50;;;;;;6186617;23;20178;-47
2021/04/26 04:36:29;;;;;;;7.60;3.00;;;12.20;48.50;;;;;;6186198;23;20036;-47
2021/04/26 04:38:55;;;;;;;4.00;2.72;;;12.10;48.40;;;;;;6185784;23;20012;-47
2021/04/26 04:41:21;;;;;;;8.90;3.10;;;12.10;48.40;;;;;;6186304;23;20004;-47
2021/04/26 04:43:46;;;;;;;13.55;3.22;;;12.20;49.10;;;;;;6186407;23;20005;-47
2021/04/26 04:46:12;;;;;;;3.20;2.17;;;12.20;48.50;;;;;;6186645;23;20008;-47
2021/04/26 04:48:38;;;;;;;6.93;2.80;;;12.20;48.50;;;;;;6185811;23;20421;-47
2021/04/26 04:51:04;;;;;;;3.88;2.63;;;12.20;48.50;;;;;;6186694;23;20017;-47
2021/04/26 04:53:30;;;;;;;4.55;2.35;;;12.10;48.40;;;;;;6186604;23;19997;-47
2021/04/26 04:55:55;;;;;;;7.45;3.00;;;12.10;48.40;;;;;;6186057;23;20005;-47
2021/04/26 04:58:21;;;;;;;4.53;2.70;;;12.20;48.50;;;;;;6186093;23;20008;-47
2021/04/26 05:00:47;;;;;;;5.53;2.47;;;12.20;48.40;;;;;;6186284;23;20351;-47
2021/04/26 05:03:12;;;;;;;3.80;2.50;;;12.20;48.40;;;;;;6186357;23;20012;-47
2021/04/26 05:05:38;;;;;;;5.45;2.53;;;12.20;48.40;;;;;;6186164;23;20009;-47
2021/04/26 05:08:04;;;;;;;5.55;2.42;;;12.20;48.40;;;;;;6186240;23;20005;-47
2021/04/26 05:10:30;;;;;;;4.38;2.55;;;12.20;48.30;;;;;;6185777;23;20036;-47
2021/04/26 05:12:55;;;;;;;5.57;2.80;;;12.20;48.30;;;;;;6186442;23;20001;-47
2021/04/26 05:15:21;;;;;;;5.97;2.47;;;12.30;48.30;;;;;;6186084;23;20039;-47
2021/04/26 05:17:47;;;;;;;8.32;2.90;;;12.30;48.20;;;;;;6186480;23;20001;-47
2021/04/26 05:20:13;;;;;;;4.38;2.60;;;12.30;48.20;;;;;;6185508;23;20012;-47
2021/04/26 05:22:39;;;;;;;5.63;2.95;;;12.40;48.00;;;;;;6186474;23;20005;-47
2021/04/26 05:25:08;;;;;;;8.07;2.88;;;12.40;47.80;;;;;;6185888;23;20301;-47
2021/04/26 05:27:34;;;;;;;3.63;2.50;;;12.50;47.70;;;;;;6182978;23;20313;-47
2021/04/26 05:29:59;;;;;;;5.30;3.03;;;12.50;47.60;;;;;;6184858;23;20261;-47
2021/04/26 05:32:25;;;;;;;21.13;2.88;;;12.50;47.50;;;;;;6185320;23;20001;-47
2021/04/26 05:34:51;;;;;;;7.57;3.15;;;12.50;47.50;;;;;;6185317;23;20005;-47
2021/04/26 05:37:16;;;;;;;6.05;3.13;;;12.50;47.40;;;;;;6186363;23;20012;-47
2021/04/26 05:39:42;;;;;;;4.55;2.58;;;12.50;47.40;;;;;;6185139;23;20009;-47
2021/04/26 05:42:07;;;;;;;7.88;3.03;;;12.60;47.40;;;;;;6185768;23;20011;-47
2021/04/26 05:44:34;;;;;;;5.30;2.60;;;12.50;47.80;;;;;;6185759;23;20001;-47
2021/04/26 05:46:59;;;;;;;8.00;2.83;;;12.60;47.20;;;;;;6186106;23;19997;-47
2021/04/26 05:49:25;;;;;;;5.80;3.03;;;12.70;47.80;;;;;;6185476;23;20009;-47
2021/04/26 05:51:50;;;;;;;4.18;2.70;;;12.80;47.10;;;;;;6185826;23;20009;-47
2021/04/26 05:54:16;;;;;;;7.00;3.00;;;12.70;47.10;;;;;;6185384;23;19997;-47
2021/04/26 05:56:42;;;;;;;5.47;3.00;;;12.80;47.10;;;;;;6183699;23;20152;-47
2021/04/26 05:59:07;;;;;;;5.53;2.67;;;12.80;47.00;;;;;;6185431;23;20001;-47
2021/04/26 06:01:33;;;;;;;10.07;3.03;;;12.80;46.90;;;;;;6186057;23;20337;-47
2021/04/26 06:03:58;;;;;;;11.18;3.42;;;12.90;46.60;;;;;;6184647;23;20029;-47
2021/04/26 06:06:27;;;;;;;7.32;2.40;;;12.80;46.40;;;;;;6185948;23;20005;-47
2021/04/26 06:08:52;;;;;;;7.00;3.45;;;12.80;46.30;;;;;;6185548;23;20001;-47
2021/04/26 06:11:18;;;;;;;8.25;3.30;;;12.90;46.10;;;;;;6185638;23;20020;-47
2021/04/26 06:13:43;;;;;;;9.27;2.88;;;13.00;46.00;;;;;;6185857;23;20076;-47
2021/04/26 06:16:09;;;;;;;6.00;3.17;;;13.00;45.90;;;;;;6185685;23;20297;-47
2021/04/26 06:18:35;;;;;;;6.85;3.47;;;13.10;46.00;;;;;;6185494;23;20036;-47
2021/04/26 06:21:01;;;;;;;6.25;3.30;;;13.20;46.00;;;;;;6185372;23;20009;-47
2021/04/26 06:23:26;;;;;;;10.98;3.22;;;13.20;46.00;;;;;;6185572;23;20009;-47
2021/04/26 06:25:52;;;;;;;7.63;3.28;;;13.30;45.90;;;;;;6185811;23;20001;-47
2021/04/26 06:28:18;;;;;;;7.13;3.10;;;13.30;45.90;;;;;;6185390;23;20055;-47
2021/04/26 06:30:45;;;;;;;7.82;3.72;;;13.30;45.70;;;;;;6185593;23;20019;-47
2021/04/26 06:33:17;;;;;;;5.35;3.20;;;13.40;45.70;;;;;;6185653;23;20036;-47
2021/04/26 06:35:44;;;;;;;7.45;3.47;;;13.40;45.60;;;;;;6185671;23;20009;-47
2021/04/26 06:38:10;;;;;;;9.30;3.40;;;13.40;45.60;;;;;;6185848;23;20056;-47
2021/04/26 06:40:37;;;;;;;7.93;3.67;;;13.50;45.60;;;;;;6185420;23;20009;-47
2021/04/26 06:43:03;;;;;;;8.82;3.47;;;13.50;45.30;;;;;;6185570;23;20570;-47
2021/04/26 06:45:29;;;;;;;4.80;3.10;;;13.60;45.30;;;;;;6185532;23;20033;-47
2021/04/26 06:47:55;;;;;;;5.05;3.22;;;13.60;45.10;;;;;;6187612;23;20063;-47
2021/04/26 06:50:21;;;;;;;8.57;3.60;;;13.70;45.00;;;;;;6187107;23;20063;-47
2021/04/26 06:52:49;;;;;;;7.93;3.75;;;13.70;44.90;;;;;;6187915;23;20005;-47
2021/04/26 06:55:15;;;;;;;4.80;3.00;;;13.70;44.80;;;;;;6188043;23;20012;-47
2021/04/26 06:57:41;;;;;;;6.90;3.03;;;13.80;44.70;;;;;;6187342;23;20294;-47
2021/04/26 07:00:09;;;;;;;6.65;3.58;;;13.80;44.70;;;;;;6187058;23;20005;-47
2021/04/26 07:02:34;;;;;;;13.82;3.63;;;13.90;44.60;;;;;;6187717;23;20001;-48
2021/04/26 07:05:01;;;;;;;6.65;3.70;;;14.00;44.50;;;;;;6187558;23;20302;-48
2021/04/26 07:07:27;;;;;;;7.22;3.67;;;14.00;44.50;;;;;;6187695;23;20001;-48
2021/04/26 07:09:52;;;;;;;11.30;3.33;;;14.00;44.40;;;;;;6186962;23;20019;-47
2021/04/26 07:12:19;;;;;;;7.55;3.60;;;14.00;44.30;;;;;;6187742;23;20095;-47
2021/04/26 07:14:45;;;;;;;16.38;3.70;;;14.00;44.30;;;;;;6186868;23;20039;-48
2021/04/26 07:17:10;;;;;;;5.97;2.90;;;14.10;44.20;;;;;;6187375;23;20402;-48
2021/04/26 07:19:36;;;;;;;7.82;3.88;;;14.10;43.90;;;;;;6186827;23;20016;-48
2021/04/26 07:22:02;;;;;;;9.60;3.83;;;14.10;44.10;;;;;;6187591;23;20018;-48
2021/04/26 07:24:27;;;;;;;8.23;3.83;;;14.20;44.20;;;;;;6187430;23;20308;-48
2021/04/26 07:26:53;;;;;;;6.93;3.45;;;14.20;44.10;;;;;;6187525;23;20313;-47
2021/04/26 07:29:19;;;;;;;6.75;3.80;;;14.30;44.00;;;;;;6186852;23;20008;-47
2021/04/26 07:31:45;;;;;;;8.02;3.50;;;14.30;44.00;;;;;;6187300;23;20432;-47
2021/04/26 07:34:10;;;;;;;11.00;5.00;;;14.40;44.00;;;;;;6187476;23;20403;-47
2021/04/26 07:36:36;;;;;;;22.92;4.38;;;14.40;44.00;;;;;;6187359;23;20367;-48
2021/04/26 07:39:03;;;;;;;10.90;4.43;;;14.40;43.90;;;;;;6186959;23;20416;-47
2021/04/26 07:41:29;;;;;;;9.70;4.55;;;14.40;43.90;;;;;;6187276;23;20027;-48
2021/04/26 07:43:55;;;;;;;10.45;4.32;;;14.50;43.90;;;;;;6187215;23;20424;-48
2021/04/26 07:46:21;;;;;;;7.97;4.53;;;14.50;43.90;;;;;;6187226;23;20305;-48
2021/04/26 07:48:46;;;;;;;13.68;4.47;;;14.50;43.80;;;;;;6186919;23;20420;-48
2021/04/26 07:51:12;;;;;;;9.45;4.68;;;14.50;43.90;;;;;;6187011;23;20474;-48
2021/04/26 07:53:37;;;;;;;7.65;4.60;;;14.50;43.80;;;;;;6186886;23;20092;-48
2021/04/26 07:56:03;;;;;;;11.25;4.93;;;14.50;44.00;;;;;;6187093;23;20028;-48
2021/04/26 07:58:29;;;;;;;9.15;4.22;;;14.50;43.80;;;;;;6186374;23;20281;-48
2021/04/26 08:00:57;;;;;;;9.88;5.15;;;14.50;43.80;;;;;;6187047;23;20005;-48
2021/04/26 08:03:23;;;;;;;9.73;5.07;;;14.50;44.00;;;;;;6187157;23;20001;-48
2021/04/26 08:05:48;;;;;;;9.23;4.57;;;14.50;44.10;;;;;;6187043;23;20450;-48
2021/04/26 08:08:14;;;;;;;14.98;5.00;;;14.50;44.00;;;;;;6186593;23;20001;-47
2021/04/26 08:10:39;;;;;;;12.70;5.07;;;14.60;44.00;;;;;;6186278;23;20036;-48
2021/04/26 08:13:05;;;;;;;11.07;5.25;;;14.70;44.10;;;;;;6187286;23;20029;-48
2021/04/26 08:15:31;;;;;;;8.75;5.38;;;14.80;44.00;;;;;;6186977;23;20005;-48
2021/04/26 08:17:58;;;;;;;10.38;5.18;;;15.10;43.90;;;;;;6186665;23;20011;-48
2021/04/26 08:20:23;;;;;;;15.55;5.70;;;15.20;43.60;;;;;;6186111;23;20020;-48
2021/04/26 08:22:49;;;;;;;7.30;4.70;;;15.40;43.40;;;;;;6187029;23;19997;-48
2021/04/26 08:25:15;;;;;;;12.50;5.55;;;15.50;43.00;;;;;;6186845;23;20282;-48
2021/04/26 08:27:40;;;;;;;9.98;5.72;;;15.60;42.90;;;;;;6186668;23;20083;-48
2021/04/26 08:30:08;;;;;;;9.25;4.80;;;15.50;42.80;;;;;;6186373;23;20012;-48
2021/04/26 08:32:34;;;;;;;9.48;5.35;;;15.40;42.90;;;;;;6186605;23;20071;-48
2021/04/26 08:35:00;;;;;;;10.23;4.97;;;15.20;43.00;;;;;;6186916;23;20301;-48
2021/04/26 08:37:26;;;;;;;11.00;5.55;;;15.00;43.20;;;;;;6186709;23;20400;-48
2021/04/26 08:39:51;;;;;;;8.98;5.47;;;14.90;43.30;;;;;;6186371;23;20005;-48
2021/04/26 08:42:18;;;;;;;11.60;5.85;;;14.80;43.60;;;;;;6186404;23;20343;-48
2021/04/26 08:44:44;;;;;;;14.95;6.22;;;14.80;43.90;;;;;;6186856;23;20005;-48
2021/04/26 08:47:10;;;;;;;12.98;5.80;;;14.60;43.90;;;;;;6186106;23;20047;-48
2021/04/26 08:49:36;;;;;;;11.18;5.70;;;14.50;44.30;;;;;;6186257;23;20001;-48
2021/04/26 08:52:03;;;;;;;13.02;5.90;;;14.50;44.50;;;;;;6186602;23;20059;-48
2021/04/26 08:54:28;;;;;;;16.08;5.60;;;14.40;44.60;;;;;;6186612;23;20001;-48
2021/04/26 08:56:54;;;;;;;11.63;5.97;;;14.40;44.80;;;;;;6186718;23;20012;-48
2021/04/26 08:59:20;;;;;;;14.20;6.20;;;14.40;44.90;;;;;;6186221;23;20005;-48
2021/04/26 09:02:02;;;;;;;9.32;5.70;;;14.40;45.00;;;;;;6186525;23;20071;-48
2021/04/26 09:04:28;;;;;;;11.27;5.70;;;14.30;45.00;;;;;;6186689;23;20001;-48
2021/04/26 09:06:58;;;;;;;12.93;6.47;;;14.30;45.00;;;;;;6185929;23;20103;-48
2021/04/26 09:09:37;;;;;;;10.02;5.53;;;14.30;45.00;;;;;;6185615;23;20013;-48
2021/04/26 09:12:05;;;;;;;15.65;7.20;;;14.30;45.00;;;;;;6185933;23;20483;-48
2021/04/26 09:14:44;;;;;;;12.05;6.00;;;14.30;45.10;;;;;;6186256;23;20432;-48
2021/04/26 09:17:40;;;;;;;12.07;6.32;;;14.30;45.10;;;;;;6186390;23;20009;-48
2021/04/26 09:20:14;;;;;;;13.57;5.82;;;14.30;45.10;;;;;;6123453;23;20017;-48
2021/04/26 09:22:41;;;;;;;18.85;6.60;;;14.30;45.20;;;;;;6123935;23;20002;-48
2021/04/26 09:25:22;;;;;;;12.80;5.00;;;14.30;45.20;;;;;;6123904;23;20014;-48
2021/04/26 09:27:54;;;;;;;12.80;6.32;;;14.40;45.20;;;;;;6123779;23;20053;-48
2021/04/26 09:30:52;;;;;;;11.43;6.30;;;14.40;45.20;;;;;;6123440;23;20432;-48
2021/04/26 09:33:26;;;;;;;12.18;5.90;;;14.40;45.30;;;;;;6123631;23;20057;-48
2021/04/26 09:36:23;;;;;;;10.40;6.22;;;14.40;45.30;;;;;;6123906;23;20009;-48
2021/04/26 09:38:54;;;;;;;14.02;5.50;;;14.40;45.40;;;;;;6123601;23;20025;-48
2021/04/26 09:41:19;;;;;;;13.30;5.78;;;14.40;45.50;;;;;;6123680;23;20049;-48
2021/04/26 09:44:00;;;;;;;10.60;5.10;;;14.40;45.40;;;;;;6123886;23;20010;-48
2021/04/26 09:46:47;;;;;;;11.10;5.03;;;14.40;45.40;;;;;;6123720;23;20018;-48
2021/04/26 09:49:15;;;;;;;20.92;5.18;;;14.40;45.30;;;;;;6123380;23;20026;-48
2021/04/26 09:51:46;;;;;;;7.05;4.20;;;14.40;45.20;;;;;;6123582;23;20017;-48
2021/04/26 09:54:12;;;;;;;7.55;4.55;;;14.50;45.30;;;;;;6123872;23;20033;-48
2021/04/26 09:56:45;;;;;;;7.78;4.18;;;14.50;45.10;;;;;;6157685;23;20005;-48
2021/04/26 09:59:15;;;;;;;11.98;4.65;;;14.50;45.10;;;;;;6185189;23;20023;-48
2021/04/26 10:01:42;;;;;;;9.10;4.43;;;14.50;45.20;;;;;;6185825;23;20009;-48
2021/04/26 10:04:11;;;;;;;8.13;3.92;;;14.50;45.10;;;;;;6186092;23;20001;-48
2021/04/26 10:06:37;;;;;;;8.63;4.20;;;14.50;45.30;;;;;;6185658;23;20013;-48
2021/04/26 10:09:08;;;;;;;7.07;3.47;;;14.50;45.20;;;;;;6185070;23;20036;-48
2021/04/26 10:11:35;;;;;;;7.15;3.55;;;14.60;45.20;;;;;;6185554;23;20413;-48
2021/04/26 10:14:02;;;;;;;6.22;3.45;;;14.50;44.90;;;;;;6185493;23;20166;-48
2021/04/26 10:16:58;;;;;;;14.88;4.20;;;14.50;45.00;;;;;;6185716;23;20023;-48
2021/04/26 10:19:50;;;;;;;7.90;3.85;;;14.50;44.70;;;;;;6184091;23;20321;-47
2021/04/26 10:22:38;;;;;;;9.40;4.00;;;14.50;44.60;;;;;;6182920;23;20342;-47
2021/04/26 10:25:05;;;;;;;9.43;4.25;;;14.50;44.50;;;;;;6185985;23;20028;-47
2021/04/26 10:27:33;;;;;;;5.65;3.67;;;14.50;44.50;;;;;;6185763;23;20041;-48
2021/04/26 10:30:07;;;;;;;8.85;4.10;;;14.50;44.50;;;;;;6185494;23;20019;-47
2021/04/26 10:33:03;;;;;;;11.20;3.63;;;14.50;44.50;;;;;;6185654;23;20008;-47
2021/04/26 10:35:46;;;;;;;3.50;1.98;;;14.60;44.80;;;;;;6185349;23;20008;-48
2021/04/26 10:38:34;;;;;;;8.13;3.42;;;14.60;45.00;;;;;;6185683;23;20009;-48
2021/04/26 10:41:00;;;;;;;13.40;3.33;;;14.50;44.60;;;;;;6185911;23;20001;-47
2021/04/26 10:43:30;;;;;;;7.03;3.22;;;14.60;43.90;;;;;;6185724;23;20121;-47
2021/04/26 10:46:14;;;;;;;7.90;3.28;;;14.60;43.90;;;;;;6185570;23;20079;-48
2021/04/26 10:49:08;;;;;;;8.80;3.30;;;14.70;43.90;;;;;;6185315;23;20063;-47
2021/04/26 10:51:38;;;;;;;7.95;3.47;;;14.60;44.20;;;;;;6185563;23;20019;-47
2021/04/26 10:54:05;;;;;;;8.27;3.30;;;14.60;44.00;;;;;;6185672;23;19997;-48
2021/04/26 10:56:32;;;;;;;9.75;3.50;;;14.60;44.10;;;;;;6185716;23;20029;-47
2021/04/26 10:59:16;;;;;;;9.05;3.58;;;14.60;44.10;;;;;;6185303;23;20001;-47
2021/04/26 11:01:50;;;;;;;7.28;3.15;;;14.60;44.40;;;;;;6185447;23;20463;-47
2021/04/26 11:04:16;;;;;;;9.50;3.72;;;14.60;43.90;;;;;;6185695;23;20001;-47
2021/04/26 11:07:16;;;;;;;6.47;3.17;;;14.70;44.10;;;;;;6185754;23;20051;-47
2021/04/26 11:09:42;;;;;;;6.63;3.70;;;14.70;44.20;;;;;;6185205;23;20009;-47
2021/04/26 11:12:29;;;;;;;7.18;3.60;;;14.70;43.90;;;;;;6185359;23;20308;-47
2021/04/26 11:15:15;;;;;;;5.28;3.75;;;14.70;43.80;;;;;;6185798;23;20005;-47
2021/04/26 11:17:42;;;;;;;6.35;3.67;;;14.60;43.80;;;;;;6185411;23;19997;-48
2021/04/26 11:20:20;;;;;;;6.82;3.50;;;14.70;43.90;;;;;;6185345;23;20017;-47
2021/04/26 11:22:46;;;;;;;5.60;3.45;;;14.70;43.90;;;;;;6185643;23;20005;-47
2021/04/26 11:25:33;;;;;;;7.35;3.70;;;14.70;43.90;;;;;;6185428;23;20278;-47
2021/04/26 11:27:59;;;;;;;8.63;3.67;;;14.70;44.00;;;;;;6185052;23;20282;-47
2021/04/26 11:30:29;;;;;;;5.03;3.03;;;14.70;43.90;;;;;;6184953;23;20330;-48
2021/04/26 11:32:59;;;;;;;7.65;3.65;;;14.70;43.90;;;;;;6185650;23;20001;-47
2021/04/26 11:35:25;;;;;;;6.45;3.00;;;14.70;44.00;;;;;;6187168;23;20007;-48
2021/04/26 11:37:52;;;;;;;10.90;4.03;;;14.70;43.40;;;;;;6187233;23;20028;-48
2021/04/26 11:40:19;;;;;;;7.47;3.35;;;14.70;43.60;;;;;;6186902;23;20008;-48
2021/04/26 11:42:46;;;;;;;8.25;3.40;;;14.70;43.80;;;;;;6186908;23;20005;-48
2021/04/26 11:45:12;;;;;;;6.57;3.65;;;14.70;44.20;;;;;;6187085;23;20005;-48
2021/04/26 11:47:38;;;;;;;6.82;3.00;;;14.70;43.40;;;;;;6186713;23;20008;-48
2021/04/26 11:50:05;;;;;;;7.78;3.53;;;14.70;43.90;;;;;;6186891;23;20012;-47
2021/04/26 11:52:33;;;;;;;6.85;3.55;;;14.80;43.70;;;;;;6186759;23;20008;-48
2021/04/26 11:55:02;;;;;;;12.50;3.30;;;14.80;44.00;;;;;;6186906;23;20036;-48
2021/04/26 11:57:28;;;;;;;7.85;3.75;;;14.80;44.10;;;;;;6184664;23;20093;-47
2021/04/26 12:00:19;;;;;;;7.75;3.63;;;14.80;44.10;;;;;;6186311;23;20005;-48
2021/04/26 12:02:49;;;;;;;5.30;3.00;;;14.80;44.40;;;;;;6179305;23;20472;-47
2021/04/26 12:05:23;;;;;;;6.93;3.85;;;14.80;44.40;;;;;;6186849;23;20401;-48
2021/04/26 12:07:51;;;;;;;14.05;3.25;;;14.80;44.40;;;;;;6186702;23;20025;-48
2021/04/26 12:10:24;;;;;;;8.05;2.83;;;14.90;44.50;;;;;;6186279;23;20524;-47
2021/04/26 12:13:00;;;;;;;7.28;3.58;;;14.80;44.40;;;;;;6186982;23;20005;-48
2021/04/26 12:15:25;;;;;;;4.82;3.30;;;14.80;43.90;;;;;;6187280;23;20013;-47
2021/04/26 12:17:54;;;;;;;11.18;3.38;;;14.80;43.90;;;;;;6186436;23;20423;-47
2021/04/26 12:20:23;;;;;;;5.82;3.38;;;14.80;44.10;;;;;;6186247;23;20067;-48
2021/04/26 12:22:52;;;;;;;8.32;2.97;;;14.90;43.60;;;;;;6186902;23;20009;-47
2021/04/26 12:25:19;;;;;;;8.45;3.53;;;14.80;43.70;;;;;;6186988;23;20012;-48
2021/04/26 12:27:45;;;;;;;5.25;2.60;;;14.80;44.10;;;;;;6186963;23;20051;-48
2021/04/26 12:30:12;;;;;;;8.10;2.33;;;14.80;42.90;;;;;;6186423;23;20013;-48
2021/04/26 12:32:38;;;;;;;4.45;3.33;;;14.80;43.50;;;;;;6186541;23;20297;-48
2021/04/26 12:35:07;;;;;;;8.48;3.70;;;14.80;43.20;;;;;;6186777;23;20005;-47
2021/04/26 12:37:35;;;;;;;6.70;3.37;;;14.80;43.70;;;;;;6186698;23;19997;-48
2021/04/26 12:40:24;;;;;;;7.63;3.45;;;14.80;42.60;;;;;;6186307;23;20009;-48
2021/04/26 12:43:00;;;;;;;12.00;3.42;;;14.80;43.00;;;;;;6186936;23;20012;-47
2021/04/26 12:45:35;;;;;;;5.78;3.40;;;14.80;43.90;;;;;;6186239;23;20382;-48
2021/04/26 12:48:13;;;;;;;9.23;3.38;;;14.80;43.70;;;;;;6186193;23;20096;-48
2021/04/26 12:50:47;;;;;;;10.18;2.90;;;14.80;43.20;;;;;;6186333;23;20344;-47
2021/04/26 12:53:19;;;;;;;5.88;2.92;;;14.80;43.10;;;;;;6186584;23;20001;-47
2021/04/26 12:55:45;;;;;;;11.18;3.15;;;14.80;43.50;;;;;;6186737;23;20009;-48